createdAt,value
2017-09-23T00:01:01.841Z,59.60
2017-09-23T00:03:28.738Z,52.50
2017-09-23T00:05:55.817Z,58.07
2017-09-23T00:08:22.718Z,61.50
2017-09-23T00:10:49.588Z,51.23
2017-09-23T00:13:16.735Z,62.70
2017-09-23T00:15:43.649Z,59.00
2017-09-23T00:18:10.553Z,61.13
2017-09-23T00:20:38.309Z,62.30
2017-09-23T00:23:05.305Z,65.10
2017-09-23T00:25:32.248Z,66.87
2017-09-23T00:27:59.152Z,56.90
2017-09-23T00:30:26.038Z,60.23
2017-09-23T00:32:52.978Z,60.23
2017-09-23T00:35:19.931Z,57.33
2017-09-23T00:37:46.860Z,53.20
2017-09-23T00:40:13.761Z,57.90
2017-09-23T00:42:40.728Z,61.60
2017-09-23T00:45:07.632Z,64.70
2017-09-23T00:47:34.553Z,57.60
2017-09-23T00:50:01.497Z,70.03
2017-09-23T00:52:29.201Z,70.70
2017-09-23T00:54:56.322Z,66.10
2017-09-23T00:57:23.343Z,58.67
2017-09-23T00:59:50.297Z,62.93
2017-09-23T01:02:17.216Z,62.63
2017-09-23T01:04:44.118Z,63.77
2017-09-23T01:07:11.010Z,57.60
2017-09-23T01:09:37.962Z,57.80
2017-09-23T01:12:04.894Z,56.87
2017-09-23T01:14:31.782Z,52.43
2017-09-23T01:16:58.682Z,62.03
2017-09-23T01:19:25.649Z,55.57
2017-09-23T01:21:52.671Z,52.67
2017-09-23T01:24:19.657Z,58.90
2017-09-23T01:26:46.578Z,58.13
2017-09-23T01:29:13.583Z,61.93
2017-09-23T01:31:40.483Z,72.70
2017-09-23T01:34:08.105Z,65.10
2017-09-23T01:36:34.995Z,62.33
2017-09-23T01:39:01.864Z,61.43
2017-09-23T01:41:28.760Z,55.13
2017-09-23T01:43:55.673Z,53.77
2017-09-23T01:46:22.609Z,54.40
2017-09-23T01:48:49.475Z,67.33
2017-09-23T01:51:16.342Z,65.70
2017-09-23T01:53:43.258Z,59.40
2017-09-23T01:56:11.065Z,63.33
2017-09-23T01:58:37.924Z,63.03
2017-09-23T02:01:04.818Z,59.43
2017-09-23T02:03:31.677Z,62.13
2017-09-23T02:05:58.597Z,62.60
2017-09-23T02:08:26.206Z,64.13
2017-09-23T02:10:53.092Z,56.43
2017-09-23T02:13:19.977Z,69.47
2017-09-23T02:15:46.865Z,56.97
2017-09-23T02:18:14.435Z,57.37
2017-09-23T02:20:42.097Z,71.30
2017-09-23T02:23:08.963Z,75.37
2017-09-23T02:25:35.803Z,83.23
2017-09-23T02:28:02.671Z,98.90
2017-09-23T02:30:29.548Z,135.83
2017-09-23T02:32:56.407Z,134.87
2017-09-23T02:35:23.276Z,139.90
2017-09-23T02:37:50.891Z,140.37
2017-09-23T02:40:17.763Z,149.27
2017-09-23T02:42:44.675Z,156.70
2017-09-23T02:45:11.569Z,156.67
2017-09-23T02:47:40.092Z,167.60
2017-09-23T02:50:06.997Z,156.70
2017-09-23T02:52:33.839Z,181.83
2017-09-23T02:55:00.806Z,155.43
2017-09-23T02:57:27.756Z,156.37
2017-09-23T02:59:54.673Z,161.17
2017-09-23T03:02:22.264Z,152.90
2017-09-23T03:04:49.177Z,137.27
2017-09-23T03:07:16.098Z,160.37
2017-09-23T03:09:42.959Z,151.60
2017-09-23T03:12:09.838Z,153.53
2017-09-23T03:14:36.690Z,146.87
2017-09-23T03:17:03.639Z,152.93
2017-09-23T03:19:30.612Z,162.10
2017-09-23T03:21:59.111Z,155.33
2017-09-23T03:24:26.003Z,154.90
2017-09-23T03:26:52.920Z,163.27
2017-09-23T03:29:19.779Z,159.30
2017-09-23T03:31:46.633Z,146.70
2017-09-23T03:34:14.250Z,151.37
2017-09-23T03:36:41.136Z,140.20
2017-09-23T03:39:08.128Z,146.57
2017-09-23T03:41:35.075Z,150.60
2017-09-23T03:44:01.943Z,162.40
2017-09-23T03:46:28.855Z,135.20
2017-09-23T03:48:56.063Z,130.70
2017-09-23T03:51:22.972Z,129.73
2017-09-23T03:53:49.858Z,135.67
2017-09-23T03:56:16.733Z,133.43
2017-09-23T03:58:43.616Z,130.23
2017-09-23T04:01:10.592Z,126.60
2017-09-23T04:03:37.514Z,135.27
2017-09-23T04:06:04.399Z,135.90
2017-09-23T04:08:31.555Z,156.03
2017-09-23T04:10:58.424Z,138.07
2017-09-23T04:13:25.322Z,131.60
2017-09-23T04:15:52.953Z,135.90
2017-09-23T04:18:19.831Z,137.23
2017-09-23T04:20:46.798Z,131.33
2017-09-23T04:23:13.828Z,132.17
2017-09-23T04:25:40.721Z,134.57
2017-09-23T04:28:07.595Z,143.93
2017-09-23T04:30:34.433Z,143.80
2017-09-23T04:33:01.303Z,134.87
2017-09-23T04:35:28.140Z,141.60
2017-09-23T04:37:55.043Z,142.90
2017-09-23T04:40:21.857Z,145.13
2017-09-23T04:42:48.654Z,140.83
2017-09-23T04:45:15.494Z,150.37
2017-09-23T04:47:42.346Z,144.90
2017-09-23T04:50:09.157Z,153.03
2017-09-23T04:52:36.765Z,151.37
2017-09-23T04:55:04.419Z,151.57
2017-09-23T04:57:32.021Z,142.33
2017-09-23T04:59:58.893Z,136.77
2017-09-23T05:02:25.762Z,150.50
2017-09-23T05:04:52.625Z,145.03
2017-09-23T05:07:19.533Z,129.37
2017-09-23T05:09:47.199Z,133.67
2017-09-23T05:12:14.036Z,140.97
2017-09-23T05:14:40.879Z,126.57
2017-09-23T05:17:07.722Z,131.03
2017-09-23T05:19:34.578Z,133.60
2017-09-23T05:22:02.146Z,137.43
2017-09-23T05:24:29.833Z,134.50
2017-09-23T05:26:57.393Z,134.63
2017-09-23T05:29:24.236Z,135.07
2017-09-23T05:31:51.098Z,137.77
2017-09-23T05:34:17.925Z,128.70
2017-09-23T05:36:44.776Z,132.93
2017-09-23T05:39:11.609Z,139.60
2017-09-23T05:41:39.215Z,141.17
2017-09-23T05:44:06.064Z,140.13
2017-09-23T05:46:32.955Z,126.90
2017-09-23T05:48:59.750Z,150.67
2017-09-23T05:51:27.181Z,136.60
2017-09-23T05:53:54.011Z,132.90
2017-09-23T05:56:20.835Z,122.50
2017-09-23T05:58:47.701Z,128.67
2017-09-23T06:01:14.589Z,121.20
2017-09-23T06:03:42.660Z,121.77
2017-09-23T06:06:09.528Z,126.67
2017-09-23T06:08:36.347Z,129.57
2017-09-23T06:11:03.163Z,126.83
2017-09-23T06:13:30.744Z,133.43
2017-09-23T06:15:58.288Z,137.37
2017-09-23T06:18:25.165Z,146.00
2017-09-23T06:20:52.003Z,143.47
2017-09-23T06:23:18.827Z,144.73
2017-09-23T06:25:45.639Z,157.40
2017-09-23T06:28:12.447Z,143.07
2017-09-23T06:30:39.340Z,142.97
2017-09-23T06:33:06.174Z,129.93
2017-09-23T06:35:33.008Z,140.23
2017-09-23T06:38:00.601Z,141.40
2017-09-23T06:40:27.437Z,134.07
2017-09-23T06:42:54.297Z,129.60
2017-09-23T06:45:21.151Z,139.90
2017-09-23T06:47:47.983Z,126.60
2017-09-23T06:50:14.838Z,135.77
2017-09-23T06:52:41.643Z,131.83
2017-09-23T06:55:08.471Z,131.03
2017-09-23T06:57:35.279Z,135.80
2017-09-23T07:00:02.169Z,122.33
2017-09-23T07:02:28.975Z,118.90
2017-09-23T07:04:55.776Z,115.60
2017-09-23T07:07:22.606Z,128.37
2017-09-23T07:09:49.449Z,116.47
2017-09-23T07:12:16.306Z,112.07
2017-09-23T07:14:43.112Z,106.63
2017-09-23T07:17:10.655Z,127.80
2017-09-23T07:19:37.522Z,120.37
2017-09-23T07:22:04.415Z,109.00
2017-09-23T07:24:31.332Z,102.13
2017-09-23T07:26:58.177Z,110.23
2017-09-23T07:29:25.004Z,106.97
2017-09-23T07:31:51.865Z,109.97
2017-09-23T07:34:18.687Z,111.30
2017-09-23T07:36:45.525Z,108.37
2017-09-23T07:39:12.393Z,117.27
2017-09-23T07:41:39.215Z,108.90
2017-09-23T07:44:06.003Z,104.53
2017-09-23T07:46:32.876Z,112.50
2017-09-23T07:48:59.754Z,107.03
2017-09-23T07:51:26.626Z,116.07
2017-09-23T07:53:53.523Z,101.80
2017-09-23T07:56:20.344Z,108.70
2017-09-23T07:58:47.203Z,103.97
2017-09-23T08:01:14.022Z,101.07
2017-09-23T08:03:40.849Z,107.13
2017-09-23T08:06:08.445Z,102.70
2017-09-23T08:08:35.340Z,96.73
2017-09-23T08:11:02.176Z,90.47
2017-09-23T08:13:29.078Z,89.10
2017-09-23T08:15:55.947Z,99.87
2017-09-23T08:18:22.811Z,82.27
2017-09-23T08:20:49.734Z,87.87
2017-09-23T08:23:16.600Z,73.73
2017-09-23T08:25:43.403Z,75.83
2017-09-23T08:28:10.268Z,75.57
2017-09-23T08:30:37.862Z,71.27
2017-09-23T08:33:05.429Z,78.70
2017-09-23T08:35:32.271Z,73.37
2017-09-23T08:37:59.216Z,73.47
2017-09-23T08:40:26.056Z,75.30
2017-09-23T08:42:52.911Z,66.67
2017-09-23T08:45:19.857Z,64.63
2017-09-23T08:47:46.773Z,67.87
2017-09-23T08:50:13.650Z,64.37
2017-09-23T08:52:40.565Z,72.47
2017-09-23T08:55:08.348Z,68.50
2017-09-23T08:57:35.191Z,72.00
2017-09-23T09:00:02.860Z,67.70
2017-09-23T09:02:30.397Z,68.93
2017-09-23T09:04:57.267Z,71.50
2017-09-23T09:07:24.106Z,73.97
2017-09-23T09:09:50.973Z,75.10
2017-09-23T09:12:17.922Z,70.07
2017-09-23T09:14:44.752Z,73.70
2017-09-23T09:17:11.833Z,68.83
2017-09-23T09:19:38.739Z,74.83
2017-09-23T09:22:05.652Z,77.37
2017-09-23T09:24:32.631Z,74.17
2017-09-23T09:26:59.436Z,85.00
2017-09-23T09:29:26.361Z,69.60
2017-09-23T09:31:53.241Z,74.13
2017-09-23T09:34:20.145Z,67.60
2017-09-23T09:36:47.783Z,68.10
2017-09-23T09:39:14.580Z,62.60
2017-09-23T09:41:42.221Z,64.43
2017-09-23T09:44:09.145Z,67.60
2017-09-23T09:46:35.977Z,61.80
2017-09-23T09:49:02.815Z,65.00
2017-09-23T09:51:29.687Z,70.67
2017-09-23T09:53:56.493Z,64.80
2017-09-23T09:56:23.330Z,66.40
2017-09-23T09:58:50.883Z,64.63
2017-09-23T10:01:17.730Z,61.90
2017-09-23T10:03:44.544Z,61.97
2017-09-23T10:06:11.405Z,62.70
2017-09-23T10:08:38.321Z,58.00
2017-09-23T10:11:05.730Z,57.20
2017-09-23T10:13:38.695Z,53.80
2017-09-23T10:16:05.571Z,58.73
2017-09-23T10:18:32.397Z,64.10
2017-09-23T10:20:59.245Z,51.77
2017-09-23T10:23:26.150Z,57.33
2017-09-23T10:25:53.000Z,57.57
2017-09-23T10:28:19.824Z,55.47
2017-09-23T10:30:46.650Z,59.27
2017-09-23T10:33:14.227Z,52.23
2017-09-23T10:35:41.801Z,51.63
2017-09-23T10:38:09.346Z,58.00
2017-09-23T10:40:36.192Z,51.47
2017-09-23T10:43:03.037Z,53.87
2017-09-23T10:45:29.934Z,52.67
2017-09-23T10:47:56.822Z,51.53
2017-09-23T10:50:23.663Z,52.80
2017-09-23T10:52:50.515Z,51.83
2017-09-23T10:55:17.336Z,52.43
2017-09-23T10:57:44.186Z,46.30
2017-09-23T11:00:11.804Z,55.23
2017-09-23T11:02:38.625Z,45.83
2017-09-23T11:05:06.499Z,47.77
2017-09-23T11:07:34.172Z,44.33
2017-09-23T11:10:01.756Z,49.43
2017-09-23T11:12:29.423Z,49.13
2017-09-23T11:14:56.673Z,44.50
2017-09-23T11:17:23.546Z,47.87
2017-09-23T11:19:50.375Z,42.53
2017-09-23T11:22:17.307Z,44.17
2017-09-23T11:24:44.177Z,44.83
2017-09-23T11:27:11.066Z,39.60
2017-09-23T11:29:37.900Z,43.40
2017-09-23T11:32:04.801Z,39.43
2017-09-23T11:37:37.223Z,38.73
2017-09-23T11:40:04.070Z,38.60
2017-09-23T11:42:30.910Z,38.97
2017-09-23T11:44:57.720Z,42.20
2017-09-23T11:47:24.529Z,37.73
2017-09-23T11:49:52.016Z,38.03
2017-09-23T11:52:19.479Z,36.53
2017-09-23T11:54:46.863Z,37.90
2017-09-23T11:57:14.265Z,38.70
2017-09-23T11:59:41.926Z,37.30
2017-09-23T12:02:09.357Z,35.53
2017-09-23T12:04:36.898Z,36.47
2017-09-23T12:07:05.040Z,34.33
2017-09-23T12:09:31.866Z,32.57
2017-09-23T12:11:59.449Z,35.07
2017-09-23T12:14:26.295Z,34.47
2017-09-23T12:16:53.154Z,33.67
2017-09-23T12:19:20.008Z,32.47
2017-09-23T12:21:46.849Z,37.13
2017-09-23T12:24:13.703Z,34.47
2017-09-23T12:26:40.566Z,33.87
2017-09-23T12:29:07.400Z,34.43
2017-09-23T12:31:34.240Z,34.30
2017-09-23T12:34:01.821Z,35.17
2017-09-23T12:36:29.415Z,32.73
2017-09-23T12:38:56.315Z,31.43
2017-09-23T12:41:23.180Z,32.33
2017-09-23T12:43:50.037Z,32.80
2017-09-23T12:46:16.878Z,31.80
2017-09-23T12:48:43.745Z,32.63
2017-09-23T12:51:10.657Z,35.93
2017-09-23T12:53:38.244Z,30.73
2017-09-23T12:56:05.822Z,33.80
2017-09-23T12:58:33.421Z,31.93
2017-09-23T13:01:00.284Z,31.70
2017-09-23T13:03:27.217Z,32.30
2017-09-23T13:05:54.080Z,36.67
2017-09-23T13:08:20.897Z,35.97
2017-09-23T13:10:47.870Z,35.30
2017-09-23T13:13:14.698Z,33.77
2017-09-23T13:15:41.574Z,34.97
2017-09-23T13:18:09.149Z,33.50
2017-09-23T13:20:36.042Z,32.50
2017-09-23T13:23:02.887Z,39.50
2017-09-23T13:25:29.757Z,41.27
2017-09-23T13:27:56.678Z,42.40
2017-09-23T13:30:23.626Z,42.60
2017-09-23T13:32:51.246Z,46.33
2017-09-23T13:35:18.146Z,47.40
2017-09-23T13:37:49.223Z,47.37
2017-09-23T13:52:30.732Z,46.30
2017-09-23T13:54:58.027Z,42.50
2017-09-23T13:57:26.035Z,41.13
2017-09-23T14:06:38.279Z,45.03
2017-09-23T14:14:50.909Z,42.07
2017-09-23T14:17:18.210Z,42.57
2017-09-23T14:19:45.646Z,42.47
2017-09-23T14:22:12.523Z,41.97
2017-09-23T14:24:39.398Z,42.03
2017-09-23T14:27:06.352Z,43.20
2017-09-23T14:29:33.213Z,40.80
2017-09-23T14:32:00.068Z,40.13
2017-09-23T14:34:26.955Z,45.73
2017-09-23T14:36:54.279Z,37.50
2017-09-23T14:39:21.253Z,38.43
2017-09-23T14:41:48.216Z,43.27
2017-09-23T14:44:15.153Z,39.93
2017-09-23T14:46:42.758Z,44.17
2017-09-23T14:49:09.604Z,38.73
2017-09-23T14:51:37.185Z,39.13
2017-09-23T14:54:04.060Z,39.00
2017-09-23T14:56:30.883Z,37.57
2017-09-23T14:58:57.776Z,39.07
2017-09-23T15:01:24.644Z,39.87
2017-09-23T15:03:51.481Z,40.07
2017-09-23T15:06:20.199Z,39.60
2017-09-23T15:08:47.788Z,39.73
2017-09-23T15:11:14.698Z,40.77
2017-09-23T15:13:41.868Z,38.50
2017-09-23T15:16:08.720Z,36.90
2017-09-23T15:18:35.596Z,37.73
2017-09-23T15:21:02.441Z,43.80
2017-09-23T15:23:29.298Z,42.00
2017-09-23T15:25:56.173Z,41.30
2017-09-23T15:28:23.116Z,41.53
2017-09-23T15:30:50.167Z,39.70
2017-09-23T15:33:16.999Z,40.53
2017-09-23T15:35:44.599Z,40.33
2017-09-23T15:38:12.022Z,42.70
2017-09-23T15:40:38.893Z,39.30
2017-09-23T15:43:05.724Z,40.10
2017-09-23T15:45:32.710Z,38.57
2017-09-23T15:47:59.601Z,42.70
2017-09-23T15:50:27.152Z,40.13
2017-09-23T15:52:53.978Z,41.73
2017-09-23T15:55:20.839Z,39.57
2017-09-23T15:57:49.200Z,37.60
2017-09-23T16:00:18.470Z,40.83
2017-09-23T16:02:45.432Z,38.03
2017-09-23T16:05:13.444Z,37.77
2017-09-23T16:07:40.364Z,37.07
2017-09-23T16:10:07.948Z,35.23
2017-09-23T16:12:34.895Z,35.30
2017-09-23T16:15:01.709Z,36.87
2017-09-23T16:17:28.824Z,36.70
2017-09-23T16:19:55.695Z,33.37
2017-09-23T16:22:23.084Z,32.93
2017-09-23T16:24:49.957Z,35.43
2017-09-23T16:27:16.837Z,38.80
2017-09-23T16:29:43.687Z,35.33
2017-09-23T16:32:10.615Z,35.87
2017-09-23T16:34:37.449Z,39.20
2017-09-23T16:37:05.040Z,37.37
2017-09-23T16:39:31.889Z,36.67
2017-09-23T16:41:59.449Z,36.00
2017-09-23T16:44:26.481Z,38.43
2017-09-23T16:46:53.300Z,38.43
2017-09-23T16:49:20.707Z,37.40
2017-09-23T16:51:47.719Z,37.90
2017-09-23T16:54:14.556Z,38.50
2017-09-23T16:56:41.402Z,38.47
2017-09-23T16:59:08.225Z,37.97
2017-09-23T17:01:35.058Z,36.93
2017-09-23T17:04:08.061Z,39.20
2017-09-23T17:06:35.187Z,36.13
2017-09-23T17:09:02.309Z,39.30
2017-09-23T17:11:30.417Z,36.13
2017-09-23T17:13:57.269Z,41.17
2017-09-23T17:16:24.098Z,38.67
2017-09-23T17:18:50.927Z,39.27
2017-09-23T17:21:17.768Z,42.37
2017-09-23T17:23:44.575Z,39.37
2017-09-23T17:26:17.336Z,39.70
2017-09-23T17:28:44.129Z,41.27
2017-09-23T17:31:10.961Z,41.93
2017-09-23T17:33:37.820Z,42.97
2017-09-23T17:36:04.700Z,62.43
2017-09-23T17:38:31.546Z,44.47
2017-09-23T17:40:58.424Z,42.13
2017-09-23T17:43:25.281Z,42.17
2017-09-23T17:45:52.119Z,43.40
2017-09-23T17:48:18.939Z,39.90
2017-09-23T17:50:45.755Z,41.90
2017-09-23T17:53:12.585Z,43.30
2017-09-23T17:55:39.814Z,43.00
2017-09-23T17:58:06.714Z,37.37
2017-09-23T18:00:33.530Z,37.60
2017-09-23T18:03:00.375Z,36.73
2017-09-23T18:05:27.264Z,36.40
2017-09-23T18:07:54.269Z,47.70
2017-09-23T18:10:21.094Z,48.80
2017-09-23T18:12:47.935Z,48.03
2017-09-23T18:15:14.816Z,44.37
2017-09-23T18:17:41.636Z,41.63
2017-09-23T18:20:08.443Z,41.37
2017-09-23T18:25:06.782Z,48.87
2017-09-23T18:27:34.335Z,46.87
2017-09-23T18:30:02.239Z,42.87
2017-09-23T18:32:29.810Z,43.50
2017-09-23T18:34:56.653Z,41.43
2017-09-23T18:37:23.459Z,41.37
2017-09-23T18:39:51.297Z,51.40
2017-09-23T18:42:18.129Z,48.33
2017-09-23T18:44:45.861Z,51.07
2017-09-23T18:50:23.544Z,49.47
2017-09-23T18:52:50.653Z,47.73
2017-09-23T18:55:18.213Z,51.70
2017-09-23T18:57:46.642Z,49.33
2017-09-23T19:00:13.538Z,48.63
2017-09-23T19:02:46.577Z,53.60
2017-09-23T19:05:15.212Z,52.53
2017-09-23T19:07:44.069Z,51.30
2017-09-23T19:10:11.182Z,41.23
2017-09-23T19:12:44.061Z,49.03
2017-09-23T19:15:11.794Z,54.73
2017-09-23T19:17:39.066Z,48.13
2017-09-23T19:20:05.990Z,50.77
2017-09-23T19:22:35.072Z,46.70
2017-09-23T19:25:02.122Z,45.57
2017-09-23T19:27:29.392Z,45.47
2017-09-23T19:33:06.948Z,47.80
2017-09-23T19:38:44.028Z,47.80
2017-09-23T19:47:01.257Z,53.90
2017-09-23T19:49:28.263Z,53.00
2017-09-23T19:51:55.289Z,54.60
2017-09-23T19:54:23.264Z,49.60
2017-09-23T19:56:50.082Z,54.20
2017-09-23T19:59:17.228Z,57.37
2017-09-23T20:01:44.727Z,46.90
2017-09-23T20:04:19.207Z,48.47
2017-09-23T20:06:46.409Z,48.00
2017-09-23T20:09:13.406Z,44.63
2017-09-23T20:11:42.795Z,41.80
2017-09-23T20:14:09.623Z,46.13
2017-09-23T20:16:38.864Z,41.57
2017-09-23T20:19:05.805Z,40.97
2017-09-23T20:21:33.940Z,42.40
2017-09-23T20:24:00.838Z,43.50
2017-09-23T20:26:27.660Z,45.83
2017-09-23T20:28:54.495Z,46.40
2017-09-23T20:31:22.062Z,45.20
2017-09-23T20:33:48.859Z,38.13
2017-09-23T20:36:15.689Z,46.60
2017-09-23T20:38:42.498Z,41.70
2017-09-23T20:41:09.306Z,39.40
2017-09-23T20:43:36.172Z,41.97
2017-09-23T20:46:03.747Z,37.93
2017-09-23T20:48:31.287Z,42.50
2017-09-23T20:50:58.106Z,40.53
2017-09-23T20:53:24.932Z,44.90
2017-09-23T20:55:51.753Z,47.60
2017-09-23T20:58:18.608Z,45.00
2017-09-23T21:00:45.474Z,48.90
2017-09-23T21:03:12.354Z,49.93
2017-09-23T21:05:39.211Z,42.83
2017-09-23T21:08:06.267Z,42.30
2017-09-23T21:10:33.156Z,41.73
2017-09-23T21:12:59.994Z,37.23
2017-09-23T21:15:26.846Z,42.07
2017-09-23T21:17:54.406Z,42.93
2017-09-23T21:20:21.251Z,48.70
2017-09-23T21:22:48.823Z,45.73
2017-09-23T21:25:16.380Z,43.47
2017-09-23T21:27:43.252Z,42.37
2017-09-23T21:30:10.740Z,43.30
2017-09-23T21:32:37.573Z,38.67
2017-09-23T21:35:04.420Z,40.60
2017-09-23T21:37:31.256Z,42.70
2017-09-23T21:39:58.120Z,39.83
2017-09-23T21:42:24.986Z,39.50
2017-09-23T21:44:52.629Z,44.40
2017-09-23T21:47:19.468Z,44.03
2017-09-23T21:49:46.342Z,50.60
2017-09-23T21:52:13.274Z,43.20
2017-09-23T21:54:40.364Z,38.53
2017-09-23T21:57:07.217Z,53.87
2017-09-23T21:59:34.149Z,47.63
2017-09-23T22:02:01.015Z,47.03
2017-09-23T22:04:27.903Z,50.50
2017-09-23T22:06:54.790Z,48.63
2017-09-23T22:09:22.386Z,47.17
2017-09-23T22:11:49.249Z,54.30
2017-09-23T22:14:16.055Z,56.00
2017-09-23T22:16:42.936Z,60.63
2017-09-23T22:19:09.796Z,53.83
2017-09-23T22:21:36.641Z,51.93
2017-09-23T22:24:03.824Z,55.53
2017-09-23T22:26:32.234Z,50.83
2017-09-23T22:28:59.118Z,51.80
2017-09-23T22:31:25.938Z,51.57
2017-09-23T22:33:52.769Z,48.83
2017-09-23T22:36:19.586Z,42.70
2017-09-23T22:38:47.159Z,43.53
2017-09-23T22:41:14.720Z,38.23
2017-09-23T22:43:41.574Z,41.50
2017-09-23T22:46:08.447Z,37.90
2017-09-23T22:48:35.281Z,45.03
2017-09-23T22:51:02.119Z,35.87
2017-09-23T22:53:28.963Z,36.70
2017-09-23T22:55:55.773Z,38.47
2017-09-23T22:58:22.660Z,34.93
2017-09-23T23:00:50.283Z,41.40
2017-09-23T23:03:17.121Z,41.47
2017-09-23T23:05:43.963Z,33.90
2017-09-23T23:08:11.582Z,36.10
2017-09-23T23:10:38.399Z,43.30
2017-09-23T23:13:05.269Z,42.33
2017-09-23T23:15:32.868Z,47.57
2017-09-23T23:17:59.741Z,39.90
2017-09-23T23:20:26.704Z,36.87
2017-09-23T23:22:53.603Z,37.30
2017-09-23T23:25:20.445Z,49.10
2017-09-23T23:27:47.291Z,49.90
2017-09-23T23:30:14.158Z,56.17
2017-09-23T23:32:40.977Z,55.77
2017-09-23T23:35:07.870Z,56.20
2017-09-23T23:37:34.722Z,70.60
2017-09-23T23:40:01.854Z,71.87
2017-09-23T23:42:28.663Z,71.80
2017-09-23T23:44:55.473Z,68.83
2017-09-23T23:47:22.419Z,85.60
2017-09-23T23:49:49.229Z,78.67
2017-09-23T23:52:16.015Z,87.10
2017-09-23T23:54:42.878Z,88.97
2017-09-23T23:57:09.682Z,87.93
2017-09-23T23:59:36.521Z,85.60
